Terminal Aerodrome Forecast
Issued by NWS Charleston, WV

Current Version | Previous Version | Graphics & Text | Print | Product List | Glossary On
Versions: 1 2 3 4 5 6 7 8 9 10 11 12 13 14 15 16 17 18 19 20 21 22 23 24 25
965
FTUS41 KRLX 221755
TAFHTS
TAF
KHTS 221755Z 2218/2318 16004KT 1SM -SHRA BR OVC005
      TEMPO 2218/2221 4SM -SHRA BR BKN015 OVC025
     FM222100 16004KT 4SM -SHRA BR OVC025
      TEMPO 2221/2223 6SM -SHRA BR OVC035
     FM222300 16004KT P6SM OVC035
     FM230200 00000KT 6SM BR BKN050
     FM230300 00000KT 5SM BR BKN060
     FM231200 19004KT 6SM BR BKN040=

USA.gov is the U.S. government's official web portal to all federal, state and local government web resources and services.